sensor_id;sensor_type;location;lat;lon;timestamp;temperature;humidity
54558;DHT22;40452;50.080;20.040;2022-10-03T04:21:28;19.80;56.20
54558;DHT22;40452;50.080;20.040;2022-10-03T04:30:14;20.20;55.20
54558;DHT22;40452;50.080;20.040;2022-10-03T04:47:25;20.20;55.40
54558;DHT22;40452;50.080;20.040;2022-10-03T04:52:59;20.20;55.30
54558;DHT22;40452;50.080;20.040;2022-10-03T04:55:48;20.20;55.40
54558;DHT22;40452;50.080;20.040;2022-10-03T04:58:53;20.20;55.30
54558;DHT22;40452;50.080;20.040;2022-10-03T05:01:40;20.30;55.70
54558;DHT22;40452;50.080;20.040;2022-10-03T05:12:11;20.30;57.00
54558;DHT22;40452;50.080;20.040;2022-10-03T05:15:02;20.30;56.80
54558;DHT22;40452;50.080;20.040;2022-10-03T05:17:45;20.30;56.70
54558;DHT22;40452;50.080;20.040;2022-10-03T05:20:20;20.30;56.50
54558;DHT22;40452;50.080;20.040;2022-10-03T05:23:12;20.30;56.40
54558;DHT22;40452;50.080;20.040;2022-10-03T05:25:49;20.40;56.60
54558;DHT22;40452;50.080;20.040;2022-10-03T05:28:38;20.40;56.30
54558;DHT22;40452;50.080;20.040;2022-10-03T05:42:51;20.50;56.00
54558;DHT22;40452;50.080;20.040;2022-10-03T05:48:32;20.50;56.30
54558;DHT22;40452;50.080;20.040;2022-10-03T11:08:31;20.60;54.90
54558;DHT22;40452;50.080;20.040;2022-10-03T11:17:05;20.60;55.00
54558;DHT22;40452;50.080;20.040;2022-10-03T11:20:12;20.60;55.00
54558;DHT22;40452;50.080;20.040;2022-10-03T11:26:12;20.50;54.90
54558;DHT22;40452;50.080;20.040;2022-10-03T11:37:04;20.50;55.00
54558;DHT22;40452;50.080;20.040;2022-10-03T11:39:46;20.60;54.90
54558;DHT22;40452;50.080;20.040;2022-10-03T11:44:59;20.50;54.80
54558;DHT22;40452;50.080;20.040;2022-10-03T11:47:50;20.60;54.80
54558;DHT22;40452;50.080;20.040;2022-10-03T11:50:32;20.50;54.80
54558;DHT22;40452;50.080;20.040;2022-10-03T11:55:49;20.50;53.70
54558;DHT22;40452;50.080;20.040;2022-10-03T12:06:56;20.30;52.60
54558;DHT22;40452;50.080;20.040;2022-10-03T12:09:59;20.20;52.60
54558;DHT22;40452;50.080;20.040;2022-10-03T12:12:39;20.30;53.20
54558;DHT22;40452;50.080;20.040;2022-10-03T12:18:30;20.40;53.90
54558;DHT22;40452;50.080;20.040;2022-10-03T12:26:54;20.50;54.10
54558;DHT22;40452;50.080;20.040;2022-10-03T12:29:24;20.50;54.10
54558;DHT22;40452;50.080;20.040;2022-10-03T12:34:38;20.50;53.60
54558;DHT22;40452;50.080;20.040;2022-10-03T12:37:41;20.60;53.40
54558;DHT22;40452;50.080;20.040;2022-10-03T12:40:15;20.60;53.50
54558;DHT22;40452;50.080;20.040;2022-10-03T12:43:04;20.60;53.60
54558;DHT22;40452;50.080;20.040;2022-10-03T12:45:59;20.60;53.50
54558;DHT22;40452;50.080;20.040;2022-10-03T12:54:38;20.60;53.50
54558;DHT22;40452;50.080;20.040;2022-10-03T12:57:27;20.70;53.60
54558;DHT22;40452;50.080;20.040;2022-10-03T13:00:14;20.70;53.50
54558;DHT22;40452;50.080;20.040;2022-10-03T13:02:42;20.70;53.50
54558;DHT22;40452;50.080;20.040;2022-10-03T13:05:32;20.60;53.50
54558;DHT22;40452;50.080;20.040;2022-10-03T13:11:29;20.70;53.50
54558;DHT22;40452;50.080;20.040;2022-10-03T13:14:14;20.70;53.60
54558;DHT22;40452;50.080;20.040;2022-10-03T13:17:00;20.70;53.60
54558;DHT22;40452;50.080;20.040;2022-10-03T13:19:42;20.60;53.40
54558;DHT22;40452;50.080;20.040;2022-10-03T13:22:39;20.60;53.40
54558;DHT22;40452;50.080;20.040;2022-10-03T13:28:00;20.60;53.50
54558;DHT22;40452;50.080;20.040;2022-10-03T13:30:31;20.60;53.40
54558;DHT22;40452;50.080;20.040;2022-10-03T13:33:27;20.70;53.60
54558;DHT22;40452;50.080;20.040;2022-10-03T13:36:12;20.70;53.50
54558;DHT22;40452;50.080;20.040;2022-10-03T13:39:05;20.70;53.60
54558;DHT22;40452;50.080;20.040;2022-10-03T13:44:22;20.70;53.80
54558;DHT22;40452;50.080;20.040;2022-10-03T13:46:57;20.70;53.60
54558;DHT22;40452;50.080;20.040;2022-10-03T13:49:29;20.70;53.60
54558;DHT22;40452;50.080;20.040;2022-10-03T13:52:14;20.70;53.30
54558;DHT22;40452;50.080;20.040;2022-10-03T13:55:00;20.70;53.30
54558;DHT22;40452;50.080;20.040;2022-10-03T13:57:38;20.70;53.20
54558;DHT22;40452;50.080;20.040;2022-10-03T14:00:19;20.80;53.30
54558;DHT22;40452;50.080;20.040;2022-10-03T14:05:39;20.80;53.80
54558;DHT22;40452;50.080;20.040;2022-10-03T14:11:13;20.80;54.00
54558;DHT22;40452;50.080;20.040;2022-10-03T14:19:52;20.80;53.70
54558;DHT22;40452;50.080;20.040;2022-10-03T14:23:35;20.80;53.60
54558;DHT22;40452;50.080;20.040;2022-10-03T14:29:07;20.90;53.70
54558;DHT22;40452;50.080;20.040;2022-10-03T14:31:49;20.80;53.50
54558;DHT22;40452;50.080;20.040;2022-10-03T14:34:39;20.80;53.60
54558;DHT22;40452;50.080;20.040;2022-10-03T14:37:31;20.80;53.50
54558;DHT22;40452;50.080;20.040;2022-10-03T14:40:14;20.90;53.60
54558;DHT22;40452;50.080;20.040;2022-10-03T14:45:28;20.90;53.70
54558;DHT22;40452;50.080;20.040;2022-10-03T14:48:03;20.90;53.60
54558;DHT22;40452;50.080;20.040;2022-10-03T14:50:32;20.90;53.60
54558;DHT22;40452;50.080;20.040;2022-10-03T14:53:07;20.90;53.60
54558;DHT22;40452;50.080;20.040;2022-10-03T14:55:42;20.90;53.70
54558;DHT22;40452;50.080;20.040;2022-10-03T14:58:19;20.90;53.70
54558;DHT22;40452;50.080;20.040;2022-10-03T15:00:47;20.90;53.70
54558;DHT22;40452;50.080;20.040;2022-10-03T15:08:37;20.90;53.70
54558;DHT22;40452;50.080;20.040;2022-10-03T15:11:04;20.90;53.70
54558;DHT22;40452;50.080;20.040;2022-10-03T15:13:37;20.90;53.60
54558;DHT22;40452;50.080;20.040;2022-10-03T15:16:05;20.90;53.60
54558;DHT22;40452;50.080;20.040;2022-10-03T15:18:32;20.90;53.60
54558;DHT22;40452;50.080;20.040;2022-10-03T15:20:58;20.90;53.60
54558;DHT22;40452;50.080;20.040;2022-10-03T15:23:35;20.90;53.60
54558;DHT22;40452;50.080;20.040;2022-10-03T15:26:07;20.90;53.60
54558;DHT22;40452;50.080;20.040;2022-10-03T15:28:44;20.90;53.60
54558;DHT22;40452;50.080;20.040;2022-10-03T15:31:31;20.90;53.50
54558;DHT22;40452;50.080;20.040;2022-10-03T15:33:58;20.90;53.50
54558;DHT22;40452;50.080;20.040;2022-10-03T15:36:28;20.90;53.30
54558;DHT22;40452;50.080;20.040;2022-10-03T15:39:01;21.00;53.40
54558;DHT22;40452;50.080;20.040;2022-10-03T15:41:50;21.00;53.50
54558;DHT22;40452;50.080;20.040;2022-10-03T15:44:18;21.00;53.60
54558;DHT22;40452;50.080;20.040;2022-10-03T15:46:52;21.00;53.60
54558;DHT22;40452;50.080;20.040;2022-10-03T15:49:29;21.00;53.60
54558;DHT22;40452;50.080;20.040;2022-10-03T15:52:09;21.00;53.70
54558;DHT22;40452;50.080;20.040;2022-10-03T15:54:40;21.00;53.60
54558;DHT22;40452;50.080;20.040;2022-10-03T15:57:17;21.00;53.60
54558;DHT22;40452;50.080;20.040;2022-10-03T15:59:43;21.00;53.70
54558;DHT22;40452;50.080;20.040;2022-10-03T16:02:20;21.10;53.70
54558;DHT22;40452;50.080;20.040;2022-10-03T16:04:52;21.10;53.80
54558;DHT22;40452;50.080;20.040;2022-10-03T16:07:40;21.10;53.50
54558;DHT22;40452;50.080;20.040;2022-10-03T16:10:17;21.10;53.30
54558;DHT22;40452;50.080;20.040;2022-10-03T16:12:58;21.00;53.20
54558;DHT22;40452;50.080;20.040;2022-10-03T16:15:31;21.00;53.30
54558;DHT22;40452;50.080;20.040;2022-10-03T16:20:56;21.00;53.20
54558;DHT22;40452;50.080;20.040;2022-10-03T16:28:53;21.00;53.20
54558;DHT22;40452;50.080;20.040;2022-10-03T16:31:31;21.00;53.30
54558;DHT22;40452;50.080;20.040;2022-10-03T16:34:05;21.00;53.30
54558;DHT22;40452;50.080;20.040;2022-10-03T16:36:45;21.00;53.10
54558;DHT22;40452;50.080;20.040;2022-10-03T16:39:27;21.00;53.10
54558;DHT22;40452;50.080;20.040;2022-10-03T16:41:55;21.00;53.10
54558;DHT22;40452;50.080;20.040;2022-10-03T16:47:01;21.00;53.00
54558;DHT22;40452;50.080;20.040;2022-10-03T16:49:42;21.00;53.00
54558;DHT22;40452;50.080;20.040;2022-10-03T16:52:31;21.10;53.10
54558;DHT22;40452;50.080;20.040;2022-10-03T16:55:04;21.00;53.90
54558;DHT22;40452;50.080;20.040;2022-10-03T16:57:40;21.00;53.50
54558;DHT22;40452;50.080;20.040;2022-10-03T17:00:23;21.10;53.80
54558;DHT22;40452;50.080;20.040;2022-10-03T17:02:51;21.10;54.20
54558;DHT22;40452;50.080;20.040;2022-10-03T17:05:19;21.00;54.30
54558;DHT22;40452;50.080;20.040;2022-10-03T17:07:50;21.10;55.10
54558;DHT22;40452;50.080;20.040;2022-10-03T17:12:48;21.00;54.00
54558;DHT22;40452;50.080;20.040;2022-10-03T17:15:21;21.00;54.40
54558;DHT22;40452;50.080;20.040;2022-10-03T17:17:57;21.00;54.30
54558;DHT22;40452;50.080;20.040;2022-10-03T17:23:38;21.00;54.40
54558;DHT22;40452;50.080;20.040;2022-10-03T17:26:23;21.00;54.20
54558;DHT22;40452;50.080;20.040;2022-10-03T17:31:40;20.90;54.20
54558;DHT22;40452;50.080;20.040;2022-10-03T17:34:20;20.90;54.20
54558;DHT22;40452;50.080;20.040;2022-10-03T17:42:47;20.90;54.30
54558;DHT22;40452;50.080;20.040;2022-10-03T17:45:31;20.90;54.10
54558;DHT22;40452;50.080;20.040;2022-10-03T17:48:15;20.90;54.10
54558;DHT22;40452;50.080;20.040;2022-10-03T17:50:56;20.90;54.30
54558;DHT22;40452;50.080;20.040;2022-10-03T17:53:28;20.90;54.30
54558;DHT22;40452;50.080;20.040;2022-10-03T17:55:57;20.90;54.30
54558;DHT22;40452;50.080;20.040;2022-10-03T17:58:27;20.90;54.30
54558;DHT22;40452;50.080;20.040;2022-10-03T18:03:48;20.90;54.30
54558;DHT22;40452;50.080;20.040;2022-10-03T18:08:47;20.90;54.30
54558;DHT22;40452;50.080;20.040;2022-10-03T18:11:19;20.90;54.20
54558;DHT22;40452;50.080;20.040;2022-10-03T18:14:01;20.90;54.20
54558;DHT22;40452;50.080;20.040;2022-10-03T18:16:36;20.80;53.80
54558;DHT22;40452;50.080;20.040;2022-10-03T18:19:29;20.80;53.80
54558;DHT22;40452;50.080;20.040;2022-10-03T18:27:32;20.80;53.60
54558;DHT22;40452;50.080;20.040;2022-10-03T18:30:04;20.80;53.30
54558;DHT22;40452;50.080;20.040;2022-10-03T18:32:33;20.70;53.00
54558;DHT22;40452;50.080;20.040;2022-10-03T18:35:20;20.70;53.20
54558;DHT22;40452;50.080;20.040;2022-10-03T18:40:23;20.70;53.10
54558;DHT22;40452;50.080;20.040;2022-10-03T18:42:49;20.70;53.00
54558;DHT22;40452;50.080;20.040;2022-10-03T18:45:29;20.70;53.00
54558;DHT22;40452;50.080;20.040;2022-10-03T18:48:09;20.70;53.00
54558;DHT22;40452;50.080;20.040;2022-10-03T18:50:57;20.70;52.80
54558;DHT22;40452;50.080;20.040;2022-10-03T18:53:30;20.70;52.90
54558;DHT22;40452;50.080;20.040;2022-10-03T18:56:22;20.60;52.60
54558;DHT22;40452;50.080;20.040;2022-10-03T18:59:20;20.60;52.90
54558;DHT22;40452;50.080;20.040;2022-10-03T19:01:52;20.60;52.90
54558;DHT22;40452;50.080;20.040;2022-10-03T19:04:44;20.50;53.30
54558;DHT22;40452;50.080;20.040;2022-10-03T19:07:28;20.60;52.80
54558;DHT22;40452;50.080;20.040;2022-10-03T19:12:39;20.50;52.80
54558;DHT22;40452;50.080;20.040;2022-10-03T19:15:18;20.50;52.80
54558;DHT22;40452;50.080;20.040;2022-10-03T19:20:52;20.50;52.40
54558;DHT22;40452;50.080;20.040;2022-10-03T19:23:30;20.40;52.30
54558;DHT22;40452;50.080;20.040;2022-10-03T19:26:25;20.40;52.20
54558;DHT22;40452;50.080;20.040;2022-10-03T19:28:52;20.40;51.50
54558;DHT22;40452;50.080;20.040;2022-10-03T19:31:43;20.30;51.90
54558;DHT22;40452;50.080;20.040;2022-10-03T19:34:23;20.30;51.80
54558;DHT22;40452;50.080;20.040;2022-10-03T19:36:54;20.30;51.80
54558;DHT22;40452;50.080;20.040;2022-10-03T19:39:22;20.30;51.90
54558;DHT22;40452;50.080;20.040;2022-10-03T19:41:55;20.30;51.70
54558;DHT22;40452;50.080;20.040;2022-10-03T19:44:24;20.30;51.80
54558;DHT22;40452;50.080;20.040;2022-10-03T19:52:45;20.30;51.90
54558;DHT22;40452;50.080;20.040;2022-10-03T19:55:34;20.20;52.60
54558;DHT22;40452;50.080;20.040;2022-10-03T19:58:17;20.20;52.10
54558;DHT22;40452;50.080;20.040;2022-10-03T20:00:55;20.20;52.00
